Time;durP1;ratioP1;P1;durP2;ratioP2;P2;SDS_P1;SDS_P2;PMS_P1;PMS_P2;Temp;Humidity;BMP_temperature;BMP_pressure;BME280_temperature;BME280_humidity;BME280_pressure;Samples;Min_cycle;Max_cycle;Signal;HPM_P1;HPM_P2
2021/12/30 00:00:49;;;;;;;;;;;;;;;;;;5049679;28;1249;-83
2021/12/30 00:03:15;;;;;;;;;;;;;;;;;;5085045;28;1295;-82
2021/12/30 00:05:41;;;;;;;;;;;;;;;;;;5085251;28;1279;-83
2021/12/30 00:08:07;;;;;;;;;;;;;;;;;;5049675;28;1200;-83
2021/12/30 00:10:32;;;;;;;;;;;;;;;;;;5050033;28;1953;-83
2021/12/30 00:12:58;;;;;;;;;;;;;;;;;;5067092;28;1232;-83
2021/12/30 00:15:23;;;;;;;;;;;;;;;;;;5068467;28;1240;-81
2021/12/30 00:17:48;;;;;;;;;;;;;;;;;;5064864;28;1180;-81
2021/12/30 00:20:14;;;;;;;;;;;;;;;;;;5068197;28;1161;-82
2021/12/30 00:22:41;;;;;;;;;;;;;;;;;;5082630;28;1137;-82
2021/12/30 00:25:07;;;;;;;;;;;;;;;;;;5052175;28;1541;-82
2021/12/30 00:27:33;;;;;;;;;;;;;;;;;;5084064;28;1152;-81
2021/12/30 00:29:58;;;;;;;;;;;;;;;;;;5050616;28;1957;-83
2021/12/30 00:32:23;;;;;;;;;;;;;;;;;;5085808;28;1153;-83
2021/12/30 00:34:48;;;;;;;;;;;;;;;;;;5082377;28;1113;-83
2021/12/30 00:37:14;;;;;;;;;;;;;;;;;;5065492;28;1290;-83
2021/12/30 00:39:39;;;;;;;;;;;;;;;;;;5083802;28;1156;-81
2021/12/30 00:42:05;;;;;;;;;;;;;;;;;;5066752;28;1193;-82
2021/12/30 00:44:33;;;;;;;;;;;;;;;;;;5084167;28;1205;-82
2021/12/30 00:46:59;;;;;;;;;;;;;;;;;;5050862;28;1372;-82
2021/12/30 00:49:25;;;;;;;;;;;;;;;;;;5081663;28;1283;-83
2021/12/30 00:51:50;;;;;;;;;;;;;;;;;;5047110;28;1914;-83
2021/12/30 00:54:16;;;;;;;;;;;;;;;;;;5051061;28;1282;-82
2021/12/30 00:56:41;;;;;;;;;;;;;;;;;;5049356;28;1486;-82
2021/12/30 00:59:06;;;;;;;;;;;;;;;;;;5086115;28;1188;-83
2021/12/30 01:01:33;;;;;;;;;;;;;;;;;;5072845;28;1239;-82
2021/12/30 01:03:59;;;;;;;;;;;;;;;;;;5103765;28;1356;-82
2021/12/30 01:06:24;;;;;;;;;;;;;;;;;;5073766;28;1148;-83
2021/12/30 01:08:49;;;;;;;;;;;;;;;;;;5104769;28;1513;-83
2021/12/30 01:11:15;;;;;;;;;;;;;;;;;;5078156;28;1898;-82
2021/12/30 01:13:43;;;;;;;;;;;;;;;;;;5059840;28;1152;-82
2021/12/30 01:16:22;;;;;;;;;;;;;;;;;;5082067;28;1208;-83
2021/12/30 01:21:20;;;;;;;;;;;;;;;;;;5084463;28;1274;-83
2021/12/30 01:23:46;;;;;;;;;;;;;;;;;;5050539;28;1270;-82
2021/12/30 01:26:11;;;;;;;;;;;;;;;;;;5050869;28;1180;-83
2021/12/30 01:28:36;;;;;;;;;;;;;;;;;;5051499;28;1417;-82
2021/12/30 01:31:02;;;;;;;;;;;;;;;;;;5084576;28;1948;-82
2021/12/30 01:33:27;;;;;;;;;;;;;;;;;;5100288;28;1160;-83
2021/12/30 01:36:02;;;;;;;;;;;;;;;;;;5084565;28;1259;-82
2021/12/30 01:38:27;;;;;;;;;;;;;;;;;;5069343;28;1154;-83
2021/12/30 01:40:54;;;;;;;;;;;;;;;;;;5066833;28;1026;-83
2021/12/30 01:43:22;;;;;;;;;;;;;;;;;;5085670;28;1133;-83
2021/12/30 01:45:48;;;;;;;;;;;;;;;;;;5050768;28;1125;-82
2021/12/30 01:48:14;;;;;;;;;;;;;;;;;;5049849;28;1501;-85
2021/12/30 01:50:40;;;;;;;;;;;;;;;;;;5067008;28;2005;-82
2021/12/30 01:53:05;;;;;;;;;;;;;;;;;;5048840;28;1208;-83
2021/12/30 01:55:32;;;;;;;;;;;;;;;;;;5068362;28;1500;-83
2021/12/30 01:57:58;;;;;;;;;;;;;;;;;;5081835;28;1382;-82
2021/12/30 02:00:24;;;;;;;;;;;;;;;;;;5085418;28;1176;-82
2021/12/30 02:02:50;;;;;;;;;;;;;;;;;;5083722;28;1196;-83
2021/12/30 02:05:16;;;;;;;;;;;;;;;;;;5070069;28;1252;-82
2021/12/30 02:07:41;;;;;;;;;;;;;;;;;;5065632;28;1109;-83
2021/12/30 02:10:07;;;;;;;;;;;;;;;;;;5053100;28;1957;-83
2021/12/30 02:12:40;;;;;;;;;;;;;;;;;;5053527;28;1304;-83
2021/12/30 02:15:07;;;;;;;;;;;;;;;;;;5070303;28;1350;-83
2021/12/30 02:17:33;;;;;;;;;;;;;;;;;;5088615;28;1180;-85
2021/12/30 02:19:59;;;;;;;;;;;;;;;;;;5067448;28;1193;-83
2021/12/30 02:22:24;;;;;;;;;;;;;;;;;;5086104;28;1128;-83
2021/12/30 02:24:50;;;;;;;;;;;;;;;;;;5086867;28;1176;-83
2021/12/30 02:27:15;;;;;;;;;;;;;;;;;;5069553;28;1165;-82
2021/12/30 02:29:41;;;;;;;;;;;;;;;;;;5068956;28;1894;-81
2021/12/30 02:32:06;;;;;;;;;;;;;;;;;;5068978;28;1252;-83
2021/12/30 02:34:32;;;;;;;;;;;;;;;;;;5052422;28;1175;-83
2021/12/30 02:36:57;;;;;;;;;;;;;;;;;;5083517;28;1057;-84
2021/12/30 02:39:23;;;;;;;;;;;;;;;;;;5087443;28;1311;-82
2021/12/30 02:41:49;;;;;;;;;;;;;;;;;;5067863;28;1188;-84
2021/12/30 02:44:14;;;;;;;;;;;;;;;;;;5086922;28;1077;-83
2021/12/30 02:46:59;;;;;;;;;;;;;;;;;;5069109;28;1081;-83
2021/12/30 02:49:25;;;;;;;;;;;;;;;;;;5086293;28;1220;-83
2021/12/30 02:51:52;;;;;;;;;;;;;;;;;;5084208;28;1971;-82
2021/12/30 02:54:17;;;;;;;;;;;;;;;;;;5052637;28;1334;-83
2021/12/30 02:56:47;;;;;;;;;;;;;;;;;;5087128;28;1184;-82
2021/12/30 02:59:13;;;;;;;;;;;;;;;;;;5087700;28;1144;-83
2021/12/30 03:01:38;;;;;;;;;;;;;;;;;;5070276;28;1217;-84
2021/12/30 03:04:04;;;;;;;;;;;;;;;;;;5066500;28;1142;-84
2021/12/30 03:06:29;;;;;;;;;;;;;;;;;;5067783;28;1228;-83
2021/12/30 03:08:55;;;;;;;;;;;;;;;;;;5069034;28;1212;-83
2021/12/30 03:11:22;;;;;;;;;;;;;;;;;;5088370;28;1894;-83
2021/12/30 03:13:48;;;;;;;;;;;;;;;;;;5064862;28;1212;-83
2021/12/30 03:16:19;;;;;;;;;;;;;;;;;;5068866;28;1246;-83
2021/12/30 03:18:46;;;;;;;;;;;;;;;;;;5085002;28;1152;-82
2021/12/30 03:21:12;;;;;;;;;;;;;;;;;;5067899;28;1233;-83
2021/12/30 03:23:38;;;;;;;;;;;;;;;;;;5069330;28;1153;-83
2021/12/30 03:26:04;;;;;;;;;;;;;;;;;;5068091;28;1363;-83
2021/12/30 03:28:30;;;;;;;;;;;;;;;;;;5088210;28;1129;-83
2021/12/30 03:30:58;;;;;;;;;;;;;;;;;;5051643;28;1894;-83
2021/12/30 03:33:24;;;;;;;;;;;;;;;;;;5067470;28;1236;-83
2021/12/30 03:35:49;;;;;;;;;;;;;;;;;;5068802;28;1177;-83
2021/12/30 03:38:14;;;;;;;;;;;;;;;;;;5066965;28;1200;-84
2021/12/30 03:40:40;;;;;;;;;;;;;;;;;;5053241;28;1279;-84
2021/12/30 03:43:05;;;;;;;;;;;;;;;;;;5067037;28;1192;-83
2021/12/30 03:45:30;;;;;;;;;;;;;;;;;;5050994;28;1157;-83
2021/12/30 03:47:56;;;;;;;;;;;;;;;;;;5064210;28;1069;-84
2021/12/30 03:50:23;;;;;;;;;;;;;;;;;;5051380;28;1973;-84
2021/12/30 03:52:51;;;;;;;;;;;;;;;;;;5064903;28;1218;-87
2021/12/30 03:55:17;;;;;;;;;;;;;;;;;;5066912;28;1260;-83
2021/12/30 03:57:42;;;;;;;;;;;;;;;;;;5067877;28;1137;-84
2021/12/30 04:00:09;;;;;;;;;;;;;;;;;;5068128;28;1192;-84
2021/12/30 04:02:44;;;;;;;;;;;;;;;;;;5068573;28;1212;-83
2021/12/30 04:05:10;;;;;;;;;;;;;;;;;;5066200;28;1349;-84
2021/12/30 04:07:35;;;;;;;;;;;;;;;;;;5083477;28;1161;-83
2021/12/30 04:10:00;;;;;;;;;;;;;;;;;;5064518;28;1914;-83
2021/12/30 04:12:26;;;;;;;;;;;;;;;;;;5067020;28;1265;-83
2021/12/30 04:14:51;;;;;;;;;;;;;;;;;;5049347;28;1188;-82
2021/12/30 04:17:17;;;;;;;;;;;;;;;;;;5050780;28;1443;-84
2021/12/30 04:19:42;;;;;;;;;;;;;;;;;;5084078;28;1188;-84
2021/12/30 04:22:07;;;;;;;;;;;;;;;;;;5047903;28;1063;-85
2021/12/30 04:24:33;;;;;;;;;;;;;;;;;;5050800;28;1422;-84
2021/12/30 04:26:58;;;;;;;;;;;;;;;;;;5065954;28;1177;-85
2021/12/30 04:29:23;;;;;;;;;;;;;;;;;;5049919;28;1393;-84
2021/12/30 04:31:57;;;;;;;;;;;;;;;;;;5050249;28;1886;-83
2021/12/30 04:34:22;;;;;;;;;;;;;;;;;;5065755;28;1125;-84
2021/12/30 04:36:48;;;;;;;;;;;;;;;;;;5083609;28;1181;-83
2021/12/30 04:39:14;;;;;;;;;;;;;;;;;;5066953;28;1342;-82
2021/12/30 04:41:39;;;;;;;;;;;;;;;;;;5068379;28;1252;-82
2021/12/30 04:44:04;;;;;;;;;;;;;;;;;;5066438;28;1333;-82
2021/12/30 04:46:30;;;;;;;;;;;;;;;;;;5067244;28;1205;-82
2021/12/30 04:48:55;;;;;;;;;;;;;;;;;;5047407;28;1251;-81
2021/12/30 04:51:21;;;;;;;;;;;;;;;;;;5066321;28;1910;-83
2021/12/30 04:53:47;;;;;;;;;;;;;;;;;;5067531;28;1157;-83
2021/12/30 04:56:13;;;;;;;;;;;;;;;;;;5083244;28;1110;-82
2021/12/30 04:58:38;;;;;;;;;;;;;;;;;;5050610;28;1312;-84
2021/12/30 05:01:03;;;;;;;;;;;;;;;;;;5068457;28;1135;-83
2021/12/30 05:03:29;;;;;;;;;;;;;;;;;;5067098;28;1405;-85
2021/12/30 05:05:59;;;;;;;;;;;;;;;;;;5050014;28;1149;-82
2021/12/30 05:08:25;;;;;;;;;;;;;;;;;;5066619;28;1326;-80
2021/12/30 05:11:00;;;;;;;;;;;;;;;;;;5067288;28;1914;-82
2021/12/30 05:13:25;;;;;;;;;;;;;;;;;;5085826;28;1168;-83
2021/12/30 05:15:59;;;;;;;;;;;;;;;;;;5069126;28;1157;-83
2021/12/30 05:18:31;;;;;;;;;;;;;;;;;;5083887;28;1194;-84
2021/12/30 05:21:05;;;;;;;;;;;;;;;;;;5083738;28;1311;-83
2021/12/30 05:23:31;;;;;;;;;;;;;;;;;;5085097;28;1129;-83
2021/12/30 05:25:57;;;;;;;;;;;;;;;;;;5049225;28;1053;-82
2021/12/30 05:28:22;;;;;;;;;;;;;;;;;;5067436;28;1445;-83
2021/12/30 05:30:48;;;;;;;;;;;;;;;;;;5068789;28;1951;-82
2021/12/30 05:33:13;;;;;;;;;;;;;;;;;;5049002;28;1107;-82
2021/12/30 05:35:39;;;;;;;;;;;;;;;;;;5086614;28;1152;-85
2021/12/30 05:38:04;;;;;;;;;;;;;;;;;;5082116;28;1173;-84
2021/12/30 05:40:30;;;;;;;;;;;;;;;;;;5072596;28;1211;-86
2021/12/30 05:42:56;;;;;;;;;;;;;;;;;;5070672;28;1157;-83
2021/12/30 05:45:21;;;;;;;;;;;;;;;;;;5053823;28;1116;-83
2021/12/30 05:47:48;;;;;;;;;;;;;;;;;;5070037;28;1109;-83
2021/12/30 05:50:21;;;;;;;;;;;;;;;;;;5089367;28;1937;-85
2021/12/30 05:52:46;;;;;;;;;;;;;;;;;;5089335;28;1164;-85
2021/12/30 05:55:13;;;;;;;;;;;;;;;;;;5070557;28;1365;-82
2021/12/30 05:57:38;;;;;;;;;;;;;;;;;;5071208;28;1176;-85
2021/12/30 06:00:05;;;;;;;;;;;;;;;;;;5088340;28;1046;-82
2021/12/30 06:02:30;;;;;;;;;;;;;;;;;;5054714;28;1153;-82
2021/12/30 06:05:02;;;;;;;;;;;;;;;;;;5067360;28;1085;-83
2021/12/30 06:07:27;;;;;;;;;;;;;;;;;;5088829;28;1109;-86
2021/12/30 06:09:52;;;;;;;;;;;;;;;;;;5070330;28;2001;-83
2021/12/30 06:12:18;;;;;;;;;;;;;;;;;;5068824;28;1298;-84
2021/12/30 06:14:43;;;;;;;;;;;;;;;;;;5069420;28;1152;-84
2021/12/30 06:17:10;;;;;;;;;;;;;;;;;;5083146;28;1048;-85
2021/12/30 06:19:36;;;;;;;;;;;;;;;;;;5066792;28;1219;-82
2021/12/30 06:22:02;;;;;;;;;;;;;;;;;;5067676;28;1312;-80
2021/12/30 06:24:27;;;;;;;;;;;;;;;;;;5069365;28;1315;-83
2021/12/30 06:26:52;;;;;;;;;;;;;;;;;;5070945;28;1223;-83
2021/12/30 06:29:17;;;;;;;;;;;;;;;;;;5087237;28;1390;-81
2021/12/30 06:31:43;;;;;;;;;;;;;;;;;;5067791;28;1890;-83
2021/12/30 06:34:08;;;;;;;;;;;;;;;;;;5048646;28;1125;-85
2021/12/30 06:36:34;;;;;;;;;;;;;;;;;;5051811;28;1224;-83
2021/12/30 06:39:03;;;;;;;;;;;;;;;;;;5068807;28;1156;-84
2021/12/30 06:41:28;;;;;;;;;;;;;;;;;;5068596;28;1277;-84
2021/12/30 06:43:53;;;;;;;;;;;;;;;;;;5087642;28;1181;-83
2021/12/30 06:46:21;;;;;;;;;;;;;;;;;;5065977;28;1160;-82
2021/12/30 06:48:46;;;;;;;;;;;;;;;;;;5067020;28;1125;-84
2021/12/30 06:51:12;;;;;;;;;;;;;;;;;;5060497;28;1979;-82
2021/12/30 06:53:38;;;;;;;;;;;;;;;;;;5088653;28;1145;-83
2021/12/30 06:56:03;;;;;;;;;;;;;;;;;;5069217;28;1156;-82
2021/12/30 06:58:28;;;;;;;;;;;;;;;;;;5054205;28;1232;-83
2021/12/30 07:00:54;;;;;;;;;;;;;;;;;;5090639;28;1263;-82
2021/12/30 07:03:19;;;;;;;;;;;;;;;;;;5086046;28;1211;-82
2021/12/30 07:05:45;;;;;;;;;;;;;;;;;;5088083;28;1205;-81
2021/12/30 07:08:10;;;;;;;;;;;;;;;;;;5088221;28;1208;-78
2021/12/30 07:10:35;;;;;;;;;;;;;;;;;;5053646;28;1910;-82
2021/12/30 07:13:04;;;;;;;;;;;;;;;;;;5070383;28;1109;-82
2021/12/30 07:15:29;;;;;;;;;;;;;;;;;;5071255;28;1307;-82
2021/12/30 07:17:54;;;;;;;;;;;;;;;;;;5069651;28;1249;-82
2021/12/30 07:20:19;;;;;;;;;;;;;;;;;;5072122;28;1195;-83
2021/12/30 07:22:45;;;;;;;;;;;;;;;;;;5052559;28;1343;-83
2021/12/30 07:25:16;;;;;;;;;;;;;;;;;;5069394;28;1026;-83
2021/12/30 07:27:41;;;;;;;;;;;;;;;;;;5089348;28;1128;-82
2021/12/30 07:30:07;;;;;;;;;;;;;;;;;;5087740;28;1956;-82
2021/12/30 07:32:32;;;;;;;;;;;;;;;;;;5072273;28;1137;-83
2021/12/30 07:34:57;;;;;;;;;;;;;;;;;;5068806;28;1153;-82
2021/12/30 07:37:23;;;;;;;;;;;;;;;;;;5051557;28;1321;-82
2021/12/30 07:39:49;;;;;;;;;;;;;;;;;;5070063;28;1161;-84
2021/12/30 07:42:14;;;;;;;;;;;;;;;;;;5070452;28;1230;-82
2021/12/30 07:44:40;;;;;;;;;;;;;;;;;;5069930;28;1426;-84
2021/12/30 07:47:08;;;;;;;;;;;;;;;;;;5068868;28;1081;-82
2021/12/30 07:49:36;;;;;;;;;;;;;;;;;;5068033;28;1195;-82
2021/12/30 07:52:07;;;;;;;;;;;;;;;;;;5050025;28;1898;-81
2021/12/30 07:54:33;;;;;;;;;;;;;;;;;;5070215;28;1569;-82
2021/12/30 07:56:58;;;;;;;;;;;;;;;;;;5087195;28;1188;-84
2021/12/30 07:59:24;;;;;;;;;;;;;;;;;;5087731;28;1125;-83
2021/12/30 08:01:49;;;;;;;;;;;;;;;;;;5088298;28;1121;-84
2021/12/30 08:04:14;;;;;;;;;;;;;;;;;;5084933;28;1212;-82
2021/12/30 08:06:40;;;;;;;;;;;;;;;;;;5084794;28;1160;-83
2021/12/30 08:09:08;;;;;;;;;;;;;;;;;;5051960;28;1222;-82
2021/12/30 08:11:34;;;;;;;;;;;;;;;;;;5068851;28;1914;-84
2021/12/30 08:13:59;;;;;;;;;;;;;;;;;;5086178;28;1156;-81
2021/12/30 08:16:25;;;;;;;;;;;;;;;;;;5068349;28;1036;-84
2021/12/30 08:18:50;;;;;;;;;;;;;;;;;;5086559;28;1161;-82
2021/12/30 08:21:16;;;;;;;;;;;;;;;;;;5049529;28;1359;-84
2021/12/30 08:23:41;;;;;;;;;;;;;;;;;;5069458;28;1212;-83
2021/12/30 08:26:09;;;;;;;;;;;;;;;;;;5085956;28;1227;-84
2021/12/30 08:28:35;;;;;;;;;;;;;;;;;;5068849;28;1425;-83
2021/12/30 08:31:00;;;;;;;;;;;;;;;;;;5088007;28;1960;-83
2021/12/30 08:33:25;;;;;;;;;;;;;;;;;;5049435;28;1140;-82
2021/12/30 08:35:51;;;;;;;;;;;;;;;;;;5053874;28;1204;-81
2021/12/30 08:38:17;;;;;;;;;;;;;;;;;;5052623;28;1201;-81
2021/12/30 08:40:43;;;;;;;;;;;;;;;;;;5077635;28;1129;-82
2021/12/30 08:43:13;;;;;;;;;;;;;;;;;;5093031;28;1200;-81
2021/12/30 08:45:38;;;;;;;;;;;;;;;;;;5102813;28;1105;-81
2021/12/30 08:48:04;;;;;;;;;;;;;;;;;;5085867;28;1184;-82
2021/12/30 08:50:29;;;;;;;;;;;;;;;;;;5099317;28;1917;-84
2021/12/30 08:52:54;;;;;;;;;;;;;;;;;;5056601;28;1241;-84
2021/12/30 08:55:22;;;;;;;;;;;;;;;;;;5066499;28;1062;-82
2021/12/30 08:57:48;;;;;;;;;;;;;;;;;;5067349;28;1235;-83
2021/12/30 09:00:24;;;;;;;;;;;;;;;;;;5066010;28;1173;-82
2021/12/30 09:02:50;;;;;;;;;;;;;;;;;;5066749;28;1635;-81
2021/12/30 09:05:16;;;;;;;;;;;;;;;;;;5066732;28;1271;-83
2021/12/30 09:07:41;;;;;;;;;;;;;;;;;;5085078;28;1349;-83
2021/12/30 09:10:07;;;;;;;;;;;;;;;;;;5070981;28;1921;-83
2021/12/30 09:12:32;;;;;;;;;;;;;;;;;;5091000;28;1160;-82
2021/12/30 09:14:57;;;;;;;;;;;;;;;;;;5089123;28;1024;-83
2021/12/30 09:17:23;;;;;;;;;;;;;;;;;;5072440;28;1201;-84
2021/12/30 09:19:48;;;;;;;;;;;;;;;;;;5076804;28;1216;-83
2021/12/30 09:22:16;;;;;;;;;;;;;;;;;;5072550;28;1149;-81
2021/12/30 09:24:42;;;;;;;;;;;;;;;;;;5071392;28;1256;-83
2021/12/30 09:27:07;;;;;;;;;;;;;;;;;;5071924;28;1153;-82
2021/12/30 09:29:32;;;;;;;;;;;;;;;;;;5087454;28;1153;-83
2021/12/30 09:31:58;;;;;;;;;;;;;;;;;;5089823;28;1957;-82
2021/12/30 09:34:23;;;;;;;;;;;;;;;;;;5086666;28;1191;-84
2021/12/30 09:36:49;;;;;;;;;;;;;;;;;;5070145;28;1137;-83
2021/12/30 09:39:15;;;;;;;;;;;;;;;;;;5069358;28;1299;-82
2021/12/30 09:41:43;;;;;;;;;;;;;;;;;;5070762;28;1305;-82
2021/12/30 09:44:09;;;;;;;;;;;;;;;;;;5070221;28;1239;-83
2021/12/30 09:46:34;;;;;;;;;;;;;;;;;;5067746;28;1327;-84
2021/12/30 09:49:00;;;;;;;;;;;;;;;;;;5088334;28;1169;-83
2021/12/30 09:51:25;;;;;;;;;;;;;;;;;;5084508;28;1874;-81
2021/12/30 09:53:51;;;;;;;;;;;;;;;;;;5070834;28;1180;-85
2021/12/30 09:56:17;;;;;;;;;;;;;;;;;;5055734;28;1129;-83
2021/12/30 09:58:43;;;;;;;;;;;;;;;;;;5034164;28;1301;-82
2021/12/30 10:01:08;;;;;;;;;;;;;;;;;;5049414;28;1182;-81
2021/12/30 10:03:35;;;;;;;;;;;;;;;;;;5045399;28;1358;-84
2021/12/30 10:06:11;;;;;;;;;;;;;;;;;;5048255;28;1311;-82
2021/12/30 10:08:42;;;;;;;;;;;;;;;;;;5076245;28;1208;-83
2021/12/30 10:11:12;;;;;;;;;;;;;;;;;;5054323;28;1967;-82
2021/12/30 10:13:40;;;;;;;;;;;;;;;;;;5086615;28;1057;-83
2021/12/30 10:16:12;;;;;;;;;;;;;;;;;;5087957;28;1184;-82
2021/12/30 10:18:45;;;;;;;;;;;;;;;;;;5068798;28;1188;-82
2021/12/30 10:21:12;;;;;;;;;;;;;;;;;;5072613;28;1149;-83
2021/12/30 10:23:41;;;;;;;;;;;;;;;;;;5067810;28;1535;-81
2021/12/30 10:26:06;;;;;;;;;;;;;;;;;;5086573;28;1326;-81
2021/12/30 10:28:54;;;;;;;;;;;;;;;;;;5057072;28;1119;-82
2021/12/30 10:31:55;;;;;;;;;;;;;;;;;;;;;
2021/12/30 10:34:22;;;;;;;;;;;;;;;;;;5042604;28;1064;-78
2021/12/30 10:36:48;;;;;;;;;;;;;;;;;;5051867;28;1295;-79
2021/12/30 10:39:14;;;;;;;;;;;;;;;;;;5035413;28;1260;-83
2021/12/30 10:41:39;;;;;;;;;;;;;;;;;;5052138;28;1248;-82
2021/12/30 10:44:05;;;;;;;;;;;;;;;;;;5049316;28;1166;-82
2021/12/30 10:46:30;;;;;;;;;;;;;;;;;;5070865;28;1299;-86
2021/12/30 10:48:57;;;;;;;;;;;;;;;;;;5057714;28;1217;-85
2021/12/30 10:51:47;;;;;;;;;;;;;;;;;;5072859;28;2232;-83
2021/12/30 10:54:15;;;;;;;;;;;;;;;;;;5083408;28;1301;-86
2021/12/30 10:56:42;;;;;;;;;;;;;;;;;;5047318;28;1298;-83
2021/12/30 10:59:10;;;;;;;;;;;;;;;;;;5068109;28;1117;-82
2021/12/30 11:01:36;;;;;;;;;;;;;;;;;;5061518;28;1273;-83
2021/12/30 11:04:01;;;;;;;;;;;;;;;;;;5059349;28;1132;-83
2021/12/30 11:06:27;;;;;;;;;;;;;;;;;;5047093;28;1221;-81
2021/12/30 11:09:06;;;;;;;;;;;;;;;;;;5048748;28;1119;-81
2021/12/30 11:11:31;;;;;;;;;;;;;;;;;;5049936;28;1891;-82
2021/12/30 11:14:03;;;;;;;;;;;;;;;;;;5048787;28;1123;-82
2021/12/30 11:16:28;;;;;;;;;;;;;;;;;;5062727;28;1169;-81
2021/12/30 11:18:56;;;;;;;;;;;;;;;;;;5064029;28;1262;-82
2021/12/30 11:21:37;;;;;;;;;;;;;;;;;;5064057;28;1240;-81
2021/12/30 11:24:03;;;;;;;;;;;;;;;;;;5048775;28;1204;-81
2021/12/30 11:26:28;;;;;;;;;;;;;;;;;;5063048;28;1278;-83
2021/12/30 11:28:54;;;;;;;;;;;;;;;;;;5081408;28;1213;-84
2021/12/30 11:31:19;;;;;;;;;;;;;;;;;;5057538;28;1975;-83
2021/12/30 11:33:45;;;;;;;;;;;;;;;;;;5027497;28;1117;-83
2021/12/30 11:36:11;;;;;;;;;;;;;;;;;;5045411;28;1209;-83
2021/12/30 11:38:36;;;;;;;;;;;;;;;;;;5046649;28;1245;-84
2021/12/30 11:41:01;;;;;;;;;;;;;;;;;;5047153;28;1122;-82
2021/12/30 11:43:40;;;;;;;;;;;;;;;;;;5062176;28;1162;-84
2021/12/30 11:46:06;;;;;;;;;;;;;;;;;;5072759;28;1228;-85
2021/12/30 11:48:38;;;;;;;;;;;;;;;;;;5031076;28;1271;-82
2021/12/30 11:51:11;;;;;;;;;;;;;;;;;;5084447;28;1882;-82
2021/12/30 11:53:38;;;;;;;;;;;;;;;;;;5048979;28;1244;-86
2021/12/30 11:56:17;;;;;;;;;;;;;;;;;;5079715;28;1181;-82
2021/12/30 11:58:52;;;;;;;;;;;;;;;;;;5058631;28;1158;-82
2021/12/30 12:01:28;;;;;;;;;;;;;;;;;;5079373;28;1196;-81
2021/12/30 12:03:54;;;;;;;;;;;;;;;;;;5045363;28;1426;-79
2021/12/30 12:06:28;;;;;;;;;;;;;;;;;;5063118;28;1134;-80
2021/12/30 12:09:08;;;;;;;;;;;;;;;;;;5052740;28;1216;-81
2021/12/30 12:11:55;;;;;;;;;;;;;;;;;;5083172;28;1943;-82
2021/12/30 12:14:23;;;;;;;;;;;;;;;;;;5072147;28;1129;-82
2021/12/30 12:16:53;;;;;;;;;;;;;;;;;;5049569;28;1224;-82
2021/12/30 12:19:23;;;;;;;;;;;;;;;;;;5074212;28;1136;-80
2021/12/30 12:21:53;;;;;;;;;;;;;;;;;;5080776;28;1167;-79
2021/12/30 12:24:21;;;;;;;;;;;;;;;;;;5052517;28;1283;-77
2021/12/30 12:26:47;;;;;;;;;;;;;;;;;;5063855;28;1165;-78
2021/12/30 12:29:32;;;;;;;;;;;;;;;;;;5067790;28;1133;-77
2021/12/30 12:32:10;;;;;;;;;;;;;;;;;;5080647;28;1927;-78
2021/12/30 12:34:41;;;;;;;;;;;;;;;;;;5060951;28;1279;-79
2021/12/30 12:37:27;;;;;;;;;;;;;;;;;;5064433;28;1228;-77
2021/12/30 12:39:57;;;;;;;;;;;;;;;;;;5034605;28;1355;-78
2021/12/30 12:42:41;;;;;;;;;;;;;;;;;;5066465;28;1213;-77
2021/12/30 12:45:25;;;;;;;;;;;;;;;;;;5085164;28;1142;-77
2021/12/30 12:48:34;;;;;;;;;;;;;;;;;;5061415;28;1124;-78
2021/12/30 12:51:18;;;;;;;;;;;;;;;;;;4977912;28;1902;-79
2021/12/30 12:53:45;;;;;;;;;;;;;;;;;;4980832;28;1142;-77
2021/12/30 12:56:10;;;;;;;;;;;;;;;;;;5040625;28;1201;-76
2021/12/30 12:58:36;;;;;;;;;;;;;;;;;;5075702;28;1156;-77
2021/12/30 13:01:02;;;;;;;;;;;;;;;;;;5066237;28;1275;-77
2021/12/30 13:03:28;;;;;;;;;;;;;;;;;;5064083;28;1318;-78
2021/12/30 13:06:05;;;;;;;;;;;;;;;;;;5047731;28;1193;-77
2021/12/30 13:08:39;;;;;;;;;;;;;;;;;;5066172;28;1354;-77
2021/12/30 13:11:05;;;;;;;;;;;;;;;;;;5084942;28;1971;-77
2021/12/30 13:13:41;;;;;;;;;;;;;;;;;;5052329;28;1153;-77
2021/12/30 13:16:18;;;;;;;;;;;;;;;;;;5048144;28;1061;-77
2021/12/30 13:18:56;;;;;;;;;;;;;;;;;;5083542;28;1136;-77
2021/12/30 13:21:22;;;;;;;;;;;;;;;;;;5083615;28;1124;-79
2021/12/30 13:23:47;;;;;;;;;;;;;;;;;;5039320;28;1359;-78
2021/12/30 13:26:12;;;;;;;;;;;;;;;;;;5030181;28;1181;-78
2021/12/30 13:28:48;;;;;;;;;;;;;;;;;;5027715;28;1225;-77
2021/12/30 13:31:15;;;;;;;;;;;;;;;;;;5063666;28;1933;-78
2021/12/30 13:33:58;;;;;;;;;;;;;;;;;;5051294;28;1253;-77
2021/12/30 13:36:24;;;;;;;;;;;;;;;;;;5056862;28;1320;-79
2021/12/30 13:38:49;;;;;;;;;;;;;;;;;;5043683;28;1444;-77
2021/12/30 13:41:16;;;;;;;;;;;;;;;;;;5062818;28;1156;-78
2021/12/30 13:43:43;;;;;;;;;;;;;;;;;;5061480;28;1169;-78
2021/12/30 13:46:10;;;;;;;;;;;;;;;;;;5044916;28;1175;-78
2021/12/30 13:48:44;;;;;;;;;;;;;;;;;;5027377;28;1441;-78
2021/12/30 13:51:24;;;;;;;;;;;;;;;;;;5061742;28;1890;-78
2021/12/30 13:53:50;;;;;;;;;;;;;;;;;;5112973;28;924;-77
2021/12/30 13:56:20;;;;;;;;;;;;;;;;;;5087377;28;1296;-77
2021/12/30 13:58:46;;;;;;;;;;;;;;;;;;5104287;27;1349;-76
2021/12/30 14:01:12;;;;;;;;;;;;;;;;;;5081470;27;1129;-76
2021/12/30 14:03:42;;;;;;;;;;;;;;;;;;5087661;28;1187;-76
2021/12/30 14:06:26;;;;;;;;;;;;;;;;;;5104936;28;1167;-76
2021/12/30 14:08:51;;;;;;;;;;;;;;;;;;5090036;28;1179;-77
2021/12/30 14:11:25;;;;;;;;;;;;;;;;;;5109500;28;1910;-77
2021/12/30 14:13:51;;;;;;;;;;;;;;;;;;5108735;28;1246;-76
2021/12/30 14:16:24;;;;;;;;;;;;;;;;;;5091550;28;1214;-76
2021/12/30 14:18:54;;;;;;;;;;;;;;;;;;5088860;28;1425;-76
2021/12/30 14:21:23;;;;;;;;;;;;;;;;;;5105624;28;1123;-76
2021/12/30 14:24:12;;;;;;;;;;;;;;;;;;5069619;28;1040;-76
2021/12/30 14:26:45;;;;;;;;;;;;;;;;;;5102133;27;1171;-75
2021/12/30 14:29:12;;;;;;;;;;;;;;;;;;5102394;28;1208;-75
2021/12/30 14:31:43;;;;;;;;;;;;;;;;;;5108121;28;1894;-76
2021/12/30 14:34:19;;;;;;;;;;;;;;;;;;5106234;28;1171;-75
2021/12/30 14:36:50;;;;;;;;;;;;;;;;;;5087695;28;1180;-75
2021/12/30 14:39:17;;;;;;;;;;;;;;;;;;5089366;28;1253;-75
2021/12/30 14:41:48;;;;;;;;;;;;;;;;;;5088940;28;1219;-76
2021/12/30 14:44:14;;;;;;;;;;;;;;;;;;5108984;28;1144;-76
2021/12/30 14:46:45;;;;;;;;;;;;;;;;;;5089897;28;1203;-75
2021/12/30 14:49:16;;;;;;;;;;;;;;;;;;5088753;28;1089;-76
2021/12/30 14:51:45;;;;;;;;;;;;;;;;;;5117809;27;1886;-76
2021/12/30 14:54:12;;;;;;;;;;;;;;;;;;5087686;28;1412;-78
2021/12/30 14:56:38;;;;;;;;;;;;;;;;;;5115209;27;1218;-77
2021/12/30 14:59:04;;;;;;;;;;;;;;;;;;5112730;27;1290;-77
2021/12/30 15:01:30;;;;;;;;;;;;;;;;;;5102159;27;1408;-77
2021/12/30 15:03:55;;;;;;;;;;;;;;;;;;5088943;27;1041;-76
2021/12/30 15:06:22;;;;;;;;;;;;;;;;;;5091985;27;1312;-77
2021/12/30 15:08:48;;;;;;;;;;;;;;;;;;5087586;27;1314;-77
2021/12/30 15:11:13;;;;;;;;;;;;;;;;;;5091673;27;1906;-77
2021/12/30 15:13:38;;;;;;;;;;;;;;;;;;5100508;27;1132;-77
2021/12/30 15:16:04;;;;;;;;;;;;;;;;;;5101528;28;1177;-77
2021/12/30 15:18:29;;;;;;;;;;;;;;;;;;5069992;28;1348;-77
2021/12/30 15:20:55;;;;;;;;;;;;;;;;;;5086417;28;1292;-77
2021/12/30 15:23:23;;;;;;;;;;;;;;;;;;5103222;27;1577;-77
2021/12/30 15:25:49;;;;;;;;;;;;;;;;;;5101896;27;1440;-77
2021/12/30 15:28:14;;;;;;;;;;;;;;;;;;5090479;27;1140;-77
2021/12/30 15:30:39;;;;;;;;;;;;;;;;;;5107215;27;1939;-77
2021/12/30 15:33:06;;;;;;;;;;;;;;;;;;5105669;27;1136;-77
2021/12/30 15:35:32;;;;;;;;;;;;;;;;;;5121851;27;1271;-77
2021/12/30 15:37:58;;;;;;;;;;;;;;;;;;5113106;27;1151;-77
2021/12/30 15:40:25;;;;;;;;;;;;;;;;;;5087928;28;1160;-76
2021/12/30 15:42:53;;;;;;;;;;;;;;;;;;5103160;27;1994;-78
2021/12/30 15:45:19;;;;;;;;;;;;;;;;;;5107564;27;1352;-77
2021/12/30 15:47:45;;;;;;;;;;;;;;;;;;5107590;27;1164;-78
2021/12/30 15:50:13;;;;;;;;;;;;;;;;;;5101160;27;1948;-75
2021/12/30 15:52:38;;;;;;;;;;;;;;;;;;5120301;27;1311;-85
2021/12/30 15:55:06;;;;;;;;;;;;;;;;;;5117613;27;1167;-84
2021/12/30 15:57:31;;;;;;;;;;;;;;;;;;5093851;27;1521;-83
2021/12/30 15:59:57;;;;;;;;;;;;;;;;;;5099918;27;1172;-80
2021/12/30 16:02:22;;;;;;;;;;;;;;;;;;5090294;27;1653;-79
2021/12/30 16:04:50;;;;;;;;;;;;;;;;;;5098623;28;1247;-77
2021/12/30 16:07:16;;;;;;;;;;;;;;;;;;5082751;27;1132;-81
2021/12/30 16:09:44;;;;;;;;;;;;;;;;;;5127806;27;1163;-81
2021/12/30 16:12:09;;;;;;;;;;;;;;;;;;5124178;27;1909;-79
2021/12/30 16:14:34;;;;;;;;;;;;;;;;;;5125057;27;1215;-77
2021/12/30 16:17:01;;;;;;;;;;;;;;;;;;5125059;27;1124;-78
2021/12/30 16:19:26;;;;;;;;;;;;;;;;;;5088865;27;1291;-78
2021/12/30 16:21:57;;;;;;;;;;;;;;;;;;5106434;27;1450;-82
2021/12/30 16:24:22;;;;;;;;;;;;;;;;;;5099304;27;1171;-78
2021/12/30 16:26:47;;;;;;;;;;;;;;;;;;5081665;27;1764;-77
2021/12/30 16:29:12;;;;;;;;;;;;;;;;;;5103084;27;1244;-78
2021/12/30 16:31:38;;;;;;;;;;;;;;;;;;5083123;28;1893;-78
2021/12/30 16:34:03;;;;;;;;;;;;;;;;;;5078013;28;1187;-77
2021/12/30 16:36:29;;;;;;;;;;;;;;;;;;5081975;28;1195;-77
2021/12/30 16:38:58;;;;;;;;;;;;;;;;;;5095073;27;1176;-78
2021/12/30 16:41:24;;;;;;;;;;;;;;;;;;5082221;28;1198;-78
2021/12/30 16:43:49;;;;;;;;;;;;;;;;;;5085332;28;1187;-78
2021/12/30 16:46:15;;;;;;;;;;;;;;;;;;5077804;28;1059;-79
2021/12/30 16:48:40;;;;;;;;;;;;;;;;;;5095832;28;1152;-78
2021/12/30 16:51:05;;;;;;;;;;;;;;;;;;5060305;28;1953;-78
2021/12/30 16:53:31;;;;;;;;;;;;;;;;;;5087140;28;1258;-78
2021/12/30 16:56:05;;;;;;;;;;;;;;;;;;5062337;28;1256;-81
2021/12/30 16:58:31;;;;;;;;;;;;;;;;;;5070916;28;1171;-81
2021/12/30 17:01:00;;;;;;;;;;;;;;;;;;5060345;28;1244;-80
2021/12/30 17:03:33;;;;;;;;;;;;;;;;;;5052262;28;1803;-82
2021/12/30 17:06:01;;;;;;;;;;;;;;;;;;5049493;28;1181;-82
2021/12/30 17:08:29;;;;;;;;;;;;;;;;;;5081586;28;1176;-81